createdAt,value
2019-03-01T00:00:33.713Z,38.53
2019-03-01T00:03:06.669Z,42.87
2019-03-01T00:06:10.487Z,37.37
2019-03-01T00:09:17.039Z,39.13
2019-03-01T00:12:34.523Z,38.90
2019-03-01T00:15:34.222Z,43.23
2019-03-01T00:18:36.798Z,39.83
2019-03-01T00:21:40.053Z,40.27
2019-03-01T00:25:06.761Z,42.30
2019-03-01T00:28:14.053Z,43.83
2019-03-01T00:31:40.725Z,44.13
2019-03-01T00:34:51.371Z,45.07
2019-03-01T00:38:01.914Z,45.90
2019-03-01T00:41:10.828Z,44.17
2019-03-01T00:44:30.169Z,45.13
2019-03-01T00:47:01.968Z,46.37
2019-03-01T00:49:33.215Z,45.80
2019-03-01T00:52:03.580Z,49.87
2019-03-01T00:54:34.006Z,49.70
2019-03-01T00:57:05.187Z,48.30
2019-03-01T00:59:35.591Z,48.83
2019-03-01T01:02:06.421Z,48.63
2019-03-01T01:04:37.389Z,52.47
2019-03-01T01:07:09.856Z,45.77
2019-03-01T01:12:28.413Z,48.50
2019-03-01T01:14:58.996Z,50.60
2019-03-01T01:17:29.795Z,52.23
2019-03-01T01:20:00.479Z,49.37
2019-03-01T01:22:30.961Z,52.73
2019-03-01T01:25:01.766Z,51.53
2019-03-01T01:27:32.149Z,52.97
2019-03-01T01:30:02.576Z,53.57
2019-03-01T01:32:34.141Z,52.33
2019-03-01T01:35:04.933Z,51.83
2019-03-01T01:37:35.411Z,53.13
2019-03-01T01:40:06.531Z,55.83
2019-03-01T01:42:36.993Z,53.23
2019-03-01T01:45:08.102Z,54.43
2019-03-01T01:47:39.557Z,53.93
2019-03-01T01:50:10.537Z,52.43
2019-03-01T01:52:40.933Z,52.43
2019-03-01T01:55:11.381Z,58.07
2019-03-01T01:57:41.960Z,56.90
2019-03-01T02:00:12.982Z,58.67
2019-03-01T02:02:43.369Z,58.03
2019-03-01T02:05:13.877Z,55.90
2019-03-01T02:07:44.267Z,56.20
2019-03-01T02:10:14.698Z,58.90
2019-03-01T02:12:45.126Z,55.73
2019-03-01T02:15:16.149Z,60.30
2019-03-01T02:17:46.649Z,58.83
2019-03-01T02:20:17.076Z,57.00
2019-03-01T02:22:47.535Z,60.87
2019-03-01T02:25:17.945Z,58.67
2019-03-01T02:27:49.369Z,63.17
2019-03-01T02:30:22.490Z,65.67
2019-03-01T02:32:52.857Z,60.47
2019-03-01T02:35:25.017Z,61.70
2019-03-01T02:37:55.506Z,61.87
2019-03-01T02:40:26.177Z,59.07
2019-03-01T02:42:56.989Z,64.13
2019-03-01T02:45:28.162Z,68.17
2019-03-01T02:47:58.447Z,72.60
2019-03-01T02:50:29.426Z,70.77
2019-03-01T02:53:00.462Z,67.07
2019-03-01T02:55:31.171Z,63.73
2019-03-01T02:58:01.762Z,58.80
2019-03-01T03:00:32.566Z,62.57
2019-03-01T03:03:03.038Z,71.67
2019-03-01T03:05:35.880Z,65.90
2019-03-01T03:08:07.762Z,67.57
2019-03-01T03:10:38.230Z,69.37
2019-03-01T03:13:10.035Z,65.80
2019-03-01T03:15:43.285Z,64.70
2019-03-01T03:18:16.027Z,77.20
2019-03-01T03:20:46.502Z,67.93
2019-03-01T03:23:16.989Z,74.93
2019-03-01T03:25:47.394Z,68.77
2019-03-01T03:28:17.825Z,65.87
2019-03-01T03:30:48.243Z,72.37
2019-03-01T03:33:18.647Z,66.60
2019-03-01T03:35:49.199Z,68.77
2019-03-01T03:38:19.582Z,70.53
2019-03-01T03:40:49.915Z,73.23
2019-03-01T03:43:22.813Z,71.53
2019-03-01T03:45:53.490Z,70.73
2019-03-01T03:48:23.991Z,70.13
2019-03-01T03:50:54.448Z,69.30
2019-03-01T03:53:24.846Z,73.87
2019-03-01T03:55:55.257Z,71.07
2019-03-01T03:58:25.661Z,80.50
2019-03-01T04:00:56.085Z,81.03
2019-03-01T04:03:26.516Z,70.93
2019-03-01T04:05:56.917Z,81.27
2019-03-01T04:08:27.335Z,77.27
2019-03-01T04:10:57.760Z,68.87
2019-03-01T04:13:28.521Z,80.57
2019-03-01T04:15:58.876Z,73.77
2019-03-01T04:18:29.351Z,73.90
2019-03-01T04:21:01.200Z,68.17
2019-03-01T04:23:31.976Z,72.87
2019-03-01T04:26:02.631Z,72.30
2019-03-01T04:28:33.343Z,69.50
2019-03-01T04:31:05.022Z,68.17
2019-03-01T04:33:35.344Z,68.37
2019-03-01T04:36:05.739Z,67.57
2019-03-01T04:38:36.514Z,63.47
2019-03-01T04:41:06.969Z,68.20
2019-03-01T04:43:37.320Z,66.73
2019-03-01T04:46:08.008Z,66.40
2019-03-01T04:48:38.358Z,54.93
2019-03-01T04:51:10.372Z,66.53
2019-03-01T04:53:41.027Z,60.57
2019-03-01T04:56:15.847Z,67.40
2019-03-01T04:58:46.414Z,60.50
2019-03-01T05:01:16.804Z,62.30
2019-03-01T05:03:47.261Z,58.03
2019-03-01T05:06:17.740Z,59.17
2019-03-01T05:08:48.144Z,58.07
2019-03-01T05:11:18.543Z,57.40
2019-03-01T05:13:48.952Z,61.30
2019-03-01T05:16:19.388Z,64.83
2019-03-01T05:18:49.781Z,62.23
2019-03-01T05:21:20.223Z,72.53
2019-03-01T05:23:50.989Z,63.13
2019-03-01T05:26:21.418Z,57.40
2019-03-01T05:28:52.195Z,63.60
2019-03-01T05:31:22.590Z,68.17
2019-03-01T05:33:55.318Z,59.30
2019-03-01T05:36:25.454Z,62.00
2019-03-01T05:38:55.939Z,73.13
2019-03-01T05:41:26.492Z,63.53
2019-03-01T05:43:56.888Z,64.37
2019-03-01T05:46:27.663Z,66.63
2019-03-01T05:48:58.448Z,58.50
2019-03-01T05:51:29.020Z,68.07
2019-03-01T05:53:59.802Z,60.10
2019-03-01T05:56:30.261Z,63.70
2019-03-01T05:59:18.930Z,67.97
2019-03-01T06:02:11.545Z,60.93
2019-03-01T06:04:49.506Z,77.23
2019-03-01T06:08:00.841Z,65.77
2019-03-01T06:10:59.106Z,77.23
2019-03-01T06:13:51.266Z,64.90
2019-03-01T06:16:54.372Z,66.90
2019-03-01T06:19:58.950Z,57.20
2019-03-01T06:22:49.221Z,60.57
2019-03-01T06:25:35.651Z,64.33
2019-03-01T06:28:33.044Z,60.17
2019-03-01T06:31:59.665Z,83.30
2019-03-01T06:35:04.028Z,73.07
2019-03-01T06:38:12.736Z,58.80
2019-03-01T06:41:26.978Z,54.37
2019-03-01T06:44:56.806Z,49.23
2019-03-01T06:47:46.982Z,49.87
2019-03-01T06:50:46.208Z,55.97
2019-03-01T06:53:16.928Z,48.20
2019-03-01T06:56:07.148Z,52.60
2019-03-01T06:58:40.119Z,48.10
2019-03-01T07:01:13.936Z,48.97
2019-03-01T07:03:46.799Z,42.17
2019-03-01T07:09:06.722Z,39.13
2019-03-01T07:11:38.613Z,40.73
2019-03-01T07:14:09.206Z,41.07
2019-03-01T07:16:39.656Z,41.47
2019-03-01T07:19:10.031Z,39.37
2019-03-01T07:21:40.418Z,38.00
2019-03-01T07:24:10.830Z,36.97
2019-03-01T07:26:41.592Z,37.57
2019-03-01T07:29:12.000Z,32.47
2019-03-01T07:31:42.464Z,35.63
2019-03-01T07:34:14.442Z,38.77
2019-03-01T07:36:44.875Z,36.97
2019-03-01T07:39:15.464Z,32.10
2019-03-01T07:41:45.860Z,32.33
2019-03-01T07:44:16.354Z,33.80
2019-03-01T07:46:53.056Z,33.40
2019-03-01T07:49:18.885Z,32.37
2019-03-01T07:51:49.365Z,37.43
2019-03-01T07:54:22.231Z,32.33
2019-03-01T07:56:51.978Z,35.23
2019-03-01T07:59:23.959Z,36.57
2019-03-01T08:01:55.934Z,32.13
2019-03-01T08:04:28.864Z,33.27
2019-03-01T08:06:59.628Z,31.03
2019-03-01T08:09:30.028Z,30.63
2019-03-01T08:12:03.670Z,30.63
2019-03-01T08:14:35.946Z,35.73
2019-03-01T08:17:06.348Z,35.37
2019-03-01T08:19:36.752Z,33.50
2019-03-01T08:22:07.106Z,33.30
2019-03-01T08:24:38.886Z,33.47
2019-03-01T08:27:10.179Z,32.33
2019-03-01T08:29:41.446Z,29.97
2019-03-01T08:32:11.882Z,29.97
2019-03-01T08:34:42.342Z,28.07
2019-03-01T08:37:14.447Z,27.27
2019-03-01T08:39:44.700Z,25.63
2019-03-01T08:42:15.370Z,24.60
2019-03-01T08:44:45.808Z,22.23
2019-03-01T08:47:20.328Z,23.07
2019-03-01T08:49:48.219Z,22.53
2019-03-01T08:52:18.552Z,21.67
2019-03-01T08:54:48.946Z,22.27
2019-03-01T08:57:22.644Z,18.63
2019-03-01T08:59:51.657Z,22.80
2019-03-01T09:02:22.181Z,23.10
2019-03-01T09:04:52.712Z,20.33
2019-03-01T09:07:23.262Z,22.83
2019-03-01T09:09:57.162Z,20.27
2019-03-01T09:12:27.112Z,18.53
2019-03-01T09:14:57.621Z,17.43
2019-03-01T09:17:28.120Z,16.90
2019-03-01T09:20:00.186Z,18.50
2019-03-01T09:22:31.352Z,16.00
2019-03-01T09:25:07.483Z,19.17
2019-03-01T09:27:37.149Z,15.43
2019-03-01T09:30:11.498Z,17.50
2019-03-01T09:32:42.136Z,17.67
2019-03-01T09:35:29.639Z,18.33
2019-03-01T09:38:04.509Z,16.63
2019-03-01T09:40:33.700Z,16.53
2019-03-01T09:43:04.220Z,16.77
2019-03-01T09:45:36.488Z,15.97
2019-03-01T09:48:08.794Z,14.90
2019-03-01T09:50:39.260Z,14.67
2019-03-01T09:53:09.697Z,14.63
2019-03-01T09:55:40.238Z,16.43
2019-03-01T09:58:10.847Z,15.67
2019-03-01T10:00:43.368Z,15.77
2019-03-01T10:03:14.210Z,15.77
2019-03-01T10:05:44.748Z,14.90
2019-03-01T10:08:15.175Z,14.70
2019-03-01T10:10:45.631Z,15.10
2019-03-01T10:13:21.859Z,15.07
2019-03-01T10:15:57.832Z,12.27
2019-03-01T10:18:28.653Z,13.43
2019-03-01T10:20:59.212Z,14.90
2019-03-01T10:23:29.864Z,13.33
2019-03-01T10:28:50.434Z,16.83
2019-03-01T10:31:20.928Z,11.83
2019-03-01T10:33:51.560Z,10.77
2019-03-01T10:36:22.131Z,12.90
2019-03-01T10:38:52.553Z,13.13
2019-03-01T10:41:23.557Z,12.50
2019-03-01T10:43:54.096Z,10.80
2019-03-01T10:46:24.889Z,12.03
2019-03-01T10:48:55.404Z,15.30
2019-03-01T10:51:25.925Z,12.07
2019-03-01T10:53:56.363Z,11.93
2019-03-01T10:56:27.311Z,12.50
2019-03-01T10:58:58.467Z,13.83
2019-03-01T11:01:29.187Z,10.03
2019-03-01T11:03:59.693Z,12.23
2019-03-01T11:06:30.320Z,12.13
2019-03-01T11:09:01.117Z,14.93
2019-03-01T11:11:33.495Z,14.87
2019-03-01T11:14:04.076Z,12.53
2019-03-01T11:16:35.586Z,12.37
2019-03-01T11:19:05.969Z,12.43
2019-03-01T11:21:36.663Z,13.03
2019-03-01T11:24:07.072Z,13.57
2019-03-01T11:26:37.791Z,13.73
2019-03-01T11:29:08.610Z,11.13
2019-03-01T11:31:39.546Z,13.10
2019-03-01T11:34:11.357Z,10.87
2019-03-01T11:36:41.756Z,10.90
2019-03-01T11:39:14.023Z,12.17
2019-03-01T11:41:44.434Z,11.93
2019-03-01T11:44:15.019Z,12.23
2019-03-01T11:46:45.442Z,14.00
2019-03-01T11:49:15.893Z,18.93
2019-03-01T11:51:46.311Z,13.07
2019-03-01T11:54:16.781Z,12.00
2019-03-01T11:56:47.248Z,11.90
2019-03-01T11:59:17.752Z,10.23
2019-03-01T12:01:48.304Z,10.53
2019-03-01T12:04:19.001Z,12.83
2019-03-01T12:06:49.781Z,11.30
2019-03-01T12:09:20.285Z,10.40
2019-03-01T12:11:50.663Z,10.90
2019-03-01T12:14:22.292Z,10.20
2019-03-01T12:16:53.089Z,9.93
2019-03-01T12:19:23.825Z,11.53
2019-03-01T12:21:54.236Z,13.33
2019-03-01T12:24:24.717Z,11.97
2019-03-01T12:26:55.112Z,14.17
2019-03-01T12:29:25.592Z,11.50
2019-03-01T12:31:56.049Z,10.77
2019-03-01T12:34:27.475Z,10.57
2019-03-01T12:36:57.895Z,10.87
2019-03-01T12:39:28.356Z,10.97
2019-03-01T12:41:58.718Z,11.23
2019-03-01T12:44:29.574Z,12.30
2019-03-01T12:47:00.067Z,12.07
2019-03-01T12:49:30.496Z,10.97
2019-03-01T12:52:00.970Z,11.67
2019-03-01T12:54:31.815Z,12.57
2019-03-01T12:57:02.221Z,11.23
2019-03-01T12:59:32.691Z,13.03
2019-03-01T13:02:03.232Z,11.87
2019-03-01T13:04:34.143Z,14.13
2019-03-01T13:07:04.741Z,12.07
2019-03-01T13:09:35.653Z,13.03
2019-03-01T13:12:06.059Z,11.67
2019-03-01T13:14:36.829Z,12.47
2019-03-01T13:17:08.700Z,12.73
2019-03-01T13:19:39.267Z,11.87
2019-03-01T13:22:09.904Z,12.63
2019-03-01T13:24:41.075Z,12.60
2019-03-01T13:27:14.154Z,14.47
2019-03-01T13:29:45.113Z,13.40
2019-03-01T13:32:15.682Z,13.30
2019-03-01T13:34:49.614Z,13.03
2019-03-01T13:37:20.354Z,13.37
2019-03-01T13:39:50.643Z,12.83
2019-03-01T13:42:21.073Z,12.77
2019-03-01T13:44:51.663Z,15.60
2019-03-01T13:47:22.053Z,12.50
2019-03-01T13:49:52.651Z,12.87
2019-03-01T13:52:23.030Z,12.63
2019-03-01T13:54:53.448Z,12.27
2019-03-01T13:57:23.835Z,12.63
2019-03-01T13:59:54.877Z,13.50
2019-03-01T14:02:25.654Z,13.23
2019-03-01T14:04:56.391Z,12.20
2019-03-01T14:07:26.711Z,13.40
2019-03-01T14:09:57.533Z,11.77
2019-03-01T14:12:27.874Z,13.10
2019-03-01T14:14:59.342Z,12.97
2019-03-01T14:17:31.344Z,11.33
2019-03-01T14:20:02.407Z,10.83
2019-03-01T14:22:34.652Z,11.97
2019-03-01T14:25:06.163Z,12.13
2019-03-01T14:27:36.759Z,12.30
2019-03-01T14:30:10.754Z,12.20
2019-03-01T14:32:41.395Z,12.20
2019-03-01T14:35:12.148Z,11.70
2019-03-01T14:37:42.953Z,12.13
2019-03-01T14:40:14.467Z,14.10
2019-03-01T14:42:47.530Z,6.90
2019-03-01T14:45:19.786Z,5.07
2019-03-01T14:47:50.492Z,3.77
2019-03-01T14:50:22.666Z,2.77
2019-03-01T14:52:58.140Z,2.57
2019-03-01T14:55:30.161Z,2.63
2019-03-01T14:58:26.437Z,2.40
2019-03-01T15:01:14.566Z,3.17
2019-03-01T15:03:45.472Z,3.40
2019-03-01T15:06:19.068Z,3.37
2019-03-01T15:08:49.895Z,3.43
2019-03-01T15:11:22.308Z,3.40
2019-03-01T15:13:54.575Z,3.17
2019-03-01T15:16:25.185Z,3.47
2019-03-01T15:18:55.646Z,2.83
2019-03-01T15:21:26.100Z,2.80
2019-03-01T15:24:00.333Z,3.27
2019-03-01T15:26:29.365Z,3.77
2019-03-01T15:29:00.104Z,3.37
2019-03-01T15:31:30.521Z,4.67
2019-03-01T15:34:01.367Z,3.63
2019-03-01T15:36:31.824Z,3.17
2019-03-01T15:39:02.354Z,4.17
2019-03-01T15:41:39.122Z,4.47
2019-03-01T15:44:09.003Z,4.17
2019-03-01T15:46:39.704Z,5.07
2019-03-01T15:49:11.752Z,3.23
2019-03-01T15:51:43.925Z,2.77
2019-03-01T15:54:14.471Z,3.47
2019-03-01T15:56:44.954Z,4.40
2019-03-01T15:59:15.793Z,4.93
2019-03-01T16:01:47.180Z,4.30
2019-03-01T16:04:18.327Z,6.17
2019-03-01T16:06:48.983Z,4.93
2019-03-01T16:09:21.822Z,3.30
2019-03-01T16:11:53.217Z,5.80
2019-03-01T16:14:24.976Z,3.50
2019-03-01T16:16:55.800Z,4.33
2019-03-01T16:19:26.336Z,4.17
2019-03-01T16:21:57.215Z,4.10
2019-03-01T16:24:28.062Z,5.07
2019-03-01T16:26:58.448Z,3.00
2019-03-01T16:29:29.051Z,3.00
2019-03-01T16:31:59.475Z,4.13
2019-03-01T16:34:31.211Z,3.40
2019-03-01T16:37:03.362Z,3.50
2019-03-01T16:39:33.877Z,4.03
2019-03-01T16:42:04.355Z,3.57
2019-03-01T16:44:35.315Z,3.90
2019-03-01T16:47:06.689Z,4.17
2019-03-01T16:49:38.069Z,3.40
2019-03-01T16:52:08.561Z,3.77
2019-03-01T16:54:39.315Z,4.93
2019-03-01T16:57:11.853Z,3.47
2019-03-01T16:59:43.735Z,3.63
2019-03-01T17:02:15.430Z,3.63
2019-03-01T17:04:45.903Z,3.57
2019-03-01T17:07:16.665Z,4.03
2019-03-01T17:09:50.955Z,3.83
2019-03-01T17:12:19.821Z,4.30
2019-03-01T17:14:50.740Z,4.10
2019-03-01T17:17:21.428Z,4.23
2019-03-01T17:19:52.225Z,4.87
2019-03-01T17:22:23.195Z,6.03
2019-03-01T17:24:54.858Z,4.80
2019-03-01T17:27:25.340Z,4.70
2019-03-01T17:29:55.764Z,3.97
2019-03-01T17:35:14.411Z,4.17
2019-03-01T17:37:45.090Z,4.17
2019-03-01T17:40:17.323Z,11.50
2019-03-01T17:42:48.809Z,5.97
2019-03-01T17:45:20.935Z,5.07
2019-03-01T17:47:52.421Z,4.33
2019-03-01T17:50:23.103Z,5.20
2019-03-01T17:52:54.038Z,4.53
2019-03-01T17:55:25.528Z,5.00
2019-03-01T17:57:56.429Z,4.37
2019-03-01T18:00:37.258Z,3.77
2019-03-01T18:03:08.148Z,5.90
2019-03-01T18:05:40.764Z,3.30
2019-03-01T18:08:11.145Z,3.73
2019-03-01T18:10:42.134Z,3.40
2019-03-01T18:13:14.933Z,3.03
2019-03-01T18:15:48.639Z,3.50
2019-03-01T18:18:17.992Z,2.30
2019-03-01T18:20:48.844Z,2.50
2019-03-01T18:23:19.682Z,3.00
2019-03-01T18:25:50.399Z,2.70
2019-03-01T18:28:21.282Z,2.80
2019-03-01T18:30:56.235Z,3.00
2019-03-01T18:33:24.661Z,3.77
2019-03-01T18:35:56.681Z,3.30
2019-03-01T18:38:31.300Z,3.00
2019-03-01T18:41:01.426Z,4.03
2019-03-01T18:43:32.000Z,3.80
2019-03-01T18:46:03.134Z,3.50
2019-03-01T18:48:35.059Z,3.50
2019-03-01T18:51:06.737Z,4.37
2019-03-01T18:53:38.059Z,4.73
2019-03-01T18:56:08.882Z,3.80
2019-03-01T18:58:39.314Z,3.87
2019-03-01T19:01:11.783Z,5.07
2019-03-01T19:03:42.639Z,5.03
2019-03-01T19:06:16.175Z,5.07
2019-03-01T19:08:45.654Z,5.07
2019-03-01T19:11:16.250Z,6.37
2019-03-01T19:13:46.805Z,5.83
2019-03-01T19:16:17.570Z,3.10
2019-03-01T19:18:50.972Z,3.87
2019-03-01T19:21:20.232Z,4.07
2019-03-01T19:23:50.827Z,3.83
2019-03-01T19:26:21.174Z,4.13
2019-03-01T19:28:51.627Z,6.43
2019-03-01T19:31:24.572Z,3.70
2019-03-01T19:33:54.170Z,3.73
2019-03-01T19:36:25.130Z,3.13
2019-03-01T19:38:56.787Z,2.73
2019-03-01T19:41:28.438Z,5.93
2019-03-01T19:44:00.062Z,3.43
2019-03-01T19:46:30.771Z,2.60
2019-03-01T19:49:04.114Z,3.00
2019-03-01T19:51:37.417Z,3.47
2019-03-01T19:54:08.387Z,2.87
2019-03-01T19:56:40.089Z,2.90
2019-03-01T19:59:10.760Z,3.17
2019-03-01T20:01:41.352Z,3.40
2019-03-01T20:04:11.808Z,3.30
2019-03-01T20:06:43.568Z,3.27
2019-03-01T20:09:14.712Z,3.37
2019-03-01T20:11:45.179Z,3.10
2019-03-01T20:14:16.923Z,2.53
2019-03-01T20:16:47.592Z,3.43
2019-03-01T20:19:20.835Z,4.03
2019-03-01T20:21:50.086Z,3.20
2019-03-01T20:24:20.591Z,3.23
2019-03-01T20:26:52.594Z,3.33
2019-03-01T20:29:23.124Z,3.43
2019-03-01T20:31:53.595Z,3.87
2019-03-01T20:34:24.029Z,3.43
2019-03-01T20:36:54.590Z,4.03
2019-03-01T20:39:25.504Z,11.33
2019-03-01T20:41:56.212Z,3.40
2019-03-01T20:44:26.668Z,4.07
2019-03-01T20:46:57.556Z,3.50
2019-03-01T20:49:29.072Z,4.20
2019-03-01T20:52:02.247Z,4.20
2019-03-01T20:54:31.863Z,4.43
2019-03-01T20:57:02.418Z,4.00
2019-03-01T20:59:32.894Z,4.77
2019-03-01T21:02:03.612Z,10.67
2019-03-01T21:04:36.666Z,4.37
2019-03-01T21:07:06.139Z,3.83
2019-03-01T21:09:37.756Z,3.10
2019-03-01T21:12:09.178Z,2.97
2019-03-01T21:14:39.933Z,3.37
2019-03-01T21:17:10.309Z,3.57
2019-03-01T21:19:43.463Z,2.17
2019-03-01T21:22:12.933Z,2.13
2019-03-01T21:24:43.428Z,2.50
2019-03-01T21:27:15.068Z,2.50
2019-03-01T21:29:47.557Z,2.87
2019-03-01T21:32:17.994Z,2.90
2019-03-01T21:34:48.478Z,3.57
2019-03-01T21:37:19.159Z,2.60
2019-03-01T21:39:50.329Z,2.47
2019-03-01T21:42:21.249Z,2.40
2019-03-01T21:44:56.796Z,3.13
2019-03-01T21:47:27.246Z,2.30
2019-03-01T21:49:59.943Z,2.30
2019-03-01T21:52:30.432Z,3.43
2019-03-01T21:55:01.056Z,3.43
2019-03-01T21:57:32.312Z,2.30
2019-03-01T22:00:02.991Z,2.77
2019-03-01T22:02:35.770Z,3.00
2019-03-01T22:05:10.290Z,2.53
2019-03-01T22:07:40.066Z,2.50
2019-03-01T22:10:11.535Z,3.13
2019-03-01T22:12:42.096Z,2.70
2019-03-01T22:15:15.210Z,2.63
2019-03-01T22:17:48.709Z,2.90
2019-03-01T22:20:17.961Z,2.90
2019-03-01T22:22:48.490Z,3.10
2019-03-01T22:25:19.044Z,2.97
2019-03-01T22:27:50.445Z,3.53
2019-03-01T22:30:26.482Z,3.97
2019-03-01T22:32:57.098Z,3.03
2019-03-01T22:35:27.773Z,3.77
2019-03-01T22:38:00.995Z,3.37
2019-03-01T22:40:30.608Z,3.67
2019-03-01T22:43:01.188Z,3.50
2019-03-01T22:45:32.040Z,3.60
2019-03-01T22:48:02.550Z,3.90
2019-03-01T22:50:34.118Z,3.90
2019-03-01T22:53:06.573Z,3.60
2019-03-01T22:55:37.631Z,3.70
2019-03-01T22:58:08.382Z,3.40
2019-03-01T23:01:29.554Z,3.83
2019-03-01T23:04:03.277Z,3.37
2019-03-01T23:06:34.029Z,3.23
2019-03-01T23:09:10.254Z,3.70
2019-03-01T23:11:40.402Z,3.50
2019-03-01T23:14:10.835Z,4.07
2019-03-01T23:16:41.784Z,2.77
2019-03-01T23:19:12.719Z,4.13
2019-03-01T23:21:44.596Z,2.90
2019-03-01T23:24:15.423Z,3.73
2019-03-01T23:26:46.357Z,3.67
2019-03-01T23:29:18.818Z,3.70
2019-03-01T23:31:49.839Z,3.57
2019-03-01T23:34:20.300Z,2.27
2019-03-01T23:36:50.793Z,4.23
2019-03-01T23:39:21.631Z,5.20
2019-03-01T23:41:53.769Z,4.00
2019-03-01T23:44:25.763Z,4.23
2019-03-01T23:46:59.533Z,4.97
2019-03-01T23:49:28.668Z,4.23
2019-03-01T23:51:59.236Z,4.43
2019-03-01T23:54:29.704Z,5.50
2019-03-01T23:57:01.912Z,6.27
2019-03-01T23:59:32.503Z,4.20
